Time;durP1;ratioP1;P1;durP2;ratioP2;P2;SDS_P1;SDS_P2;PMS_P1;PMS_P2;Temp;Humidity;BMP_temperature;BMP_pressure;BME280_temperature;BME280_humidity;BME280_pressure;Samples;Min_cycle;Max_cycle;Signal;HPM_P1;HPM_P2
2021/10/31 00:02:14;;;;;;;22.55;14.98;;;13.60;84.10;;;;;;4926554;28;92321;-91
2021/10/31 00:04:41;;;;;;;19.67;15.52;;;13.70;84.00;;;;;;4926939;28;92577;-91
2021/10/31 00:07:08;;;;;;;19.67;15.43;;;13.70;83.80;;;;;;4913229;28;94866;-91
2021/10/31 00:09:35;;;;;;;22.15;16.20;;;13.70;83.70;;;;;;4904724;28;95796;-91
2021/10/31 00:12:04;;;;;;;25.30;17.60;;;13.70;83.60;;;;;;4888895;28;92530;-91
2021/10/31 00:14:31;;;;;;;21.65;17.10;;;13.70;83.60;;;;;;4889632;28;92458;-91
2021/10/31 00:17:02;;;;;;;22.55;17.33;;;13.70;83.60;;;;;;4902894;28;98764;-91
2021/10/31 00:19:30;;;;;;;26.35;19.05;;;13.70;83.70;;;;;;4909803;28;98353;-91
2021/10/31 00:21:57;;;;;;;24.40;17.70;;;13.70;83.60;;;;;;4926657;28;92367;-91
2021/10/31 00:24:25;;;;;;;27.02;18.50;;;13.60;83.40;;;;;;4959956;28;92496;-91
2021/10/31 00:26:52;;;;;;;27.63;18.33;;;13.60;83.20;;;;;;4942182;28;92231;-91
2021/10/31 00:29:19;;;;;;;25.90;18.00;;;13.50;83.30;;;;;;4926126;28;95807;-91
2021/10/31 00:31:46;;;;;;;25.77;19.30;;;13.50;83.50;;;;;;4910006;28;92489;-91
2021/10/31 00:34:14;;;;;;;27.25;20.40;;;13.40;83.60;;;;;;4910444;28;91820;-91
2021/10/31 00:36:41;;;;;;;31.88;21.33;;;13.40;83.60;;;;;;4925585;28;96074;-91
2021/10/31 00:39:08;;;;;;;29.30;19.83;;;13.30;83.70;;;;;;4941466;28;104242;-90
2021/10/31 00:41:35;;;;;;;29.30;20.60;;;13.20;83.80;;;;;;4908512;28;94751;-91
2021/10/31 00:44:02;;;;;;;23.95;19.65;;;13.20;84.00;;;;;;4925475;28;92735;-91
2021/10/31 00:46:29;;;;;;;32.42;21.05;;;13.20;84.00;;;;;;4909366;28;96271;-91
2021/10/31 00:48:56;;;;;;;33.60;20.45;;;13.20;84.00;;;;;;4925545;28;95652;-91
2021/10/31 00:51:27;;;;;;;31.73;21.88;;;13.20;84.10;;;;;;4925466;28;92382;-91
2021/10/31 00:53:57;;;;;;;26.27;21.05;;;13.20;84.10;;;;;;4925941;28;92545;-91
2021/10/31 00:56:24;;;;;;;35.72;21.33;;;13.20;84.30;;;;;;4925706;28;96323;-91
2021/10/31 00:58:52;;;;;;;33.55;21.92;;;13.20;84.40;;;;;;4925775;28;96095;-91
2021/10/31 01:01:20;;;;;;;33.13;21.75;;;13.20;84.30;;;;;;4941659;28;92531;-91
2021/10/31 01:03:49;;;;;;;32.13;23.55;;;13.20;84.10;;;;;;4941563;28;92529;-91
2021/10/31 01:06:56;;;;;;;32.70;23.15;;;13.30;84.10;;;;;;4924502;28;98159;-91
2021/10/31 01:09:41;;;;;;;32.50;22.02;;;13.30;83.90;;;;;;4924863;28;98229;-91
2021/10/31 01:12:40;;;;;;;35.00;25.60;;;13.30;84.10;;;;;;4925442;28;92872;-91
2021/10/31 01:15:26;;;;;;;32.80;22.27;;;13.20;84.30;;;;;;4899376;28;92959;-91
2021/10/31 01:18:24;;;;;;;31.10;21.98;;;13.20;84.10;;;;;;4925038;28;96530;-91
2021/10/31 01:21:09;;;;;;;35.15;23.70;;;13.30;84.20;;;;;;4925215;28;94486;-91
2021/10/31 01:24:08;;;;;;;40.42;24.40;;;13.20;84.30;;;;;;4925134;28;92359;-91
2021/10/31 01:26:49;;;;;;;38.38;25.58;;;13.30;84.10;;;;;;4925258;28;91853;-91
2021/10/31 01:29:16;;;;;;;37.45;25.40;;;13.30;84.20;;;;;;4925025;28;95853;-91
2021/10/31 01:32:21;;;;;;;37.30;25.25;;;13.20;84.20;;;;;;4941063;28;95999;-91
2021/10/31 01:34:51;;;;;;;40.53;25.38;;;13.20;84.00;;;;;;4956093;28;94853;-91
2021/10/31 01:37:34;;;;;;;40.80;24.85;;;13.20;84.20;;;;;;4940747;28;92551;-91
2021/10/31 01:40:07;;;;;;;38.85;25.73;;;13.30;84.10;;;;;;4924793;28;96180;-90
2021/10/31 01:43:05;;;;;;;34.78;24.20;;;13.10;84.40;;;;;;4940434;28;94262;-90
2021/10/31 01:45:38;;;;;;;38.50;25.77;;;13.20;84.30;;;;;;4923753;28;92667;-91
2021/10/31 01:48:32;;;;;;;42.77;26.47;;;13.20;84.50;;;;;;4924876;28;92416;-91
2021/10/31 01:51:02;;;;;;;32.27;23.13;;;13.20;84.20;;;;;;4956701;28;94822;-91
2021/10/31 01:53:34;;;;;;;36.20;25.60;;;13.10;84.40;;;;;;4941268;28;93116;-91
2021/10/31 01:56:08;;;;;;;38.13;26.85;;;13.20;84.40;;;;;;4940588;28;92439;-91
2021/10/31 01:58:38;;;;;;;;;;;13.20;84.30;;;;;;4941061;28;92442;-92
2021/10/31 02:01:07;;;;;;;38.17;25.90;;;13.20;84.10;;;;;;4958126;28;95955;-91
2021/10/31 02:03:38;;;;;;;35.83;24.40;;;13.20;84.10;;;;;;4939981;28;111736;-91
2021/10/31 02:06:06;;;;;;;42.05;25.20;;;13.20;84.00;;;;;;4940669;28;92279;-91
2021/10/31 02:08:35;;;;;;;43.97;27.33;;;13.20;84.00;;;;;;4924026;28;97903;-91
2021/10/31 02:11:03;;;;;;;37.75;24.48;;;13.20;83.90;;;;;;4972917;28;95915;-91
2021/10/31 02:13:32;;;;;;;36.38;25.98;;;13.20;84.50;;;;;;4947506;28;96072;-91
2021/10/31 02:15:59;;;;;;;32.83;25.55;;;13.30;83.80;;;;;;4920890;28;92535;-92
2021/10/31 02:18:28;;;;;;;32.83;25.60;;;13.30;83.60;;;;;;4920984;28;91742;-91
2021/10/31 02:20:57;;;;;;;40.67;26.25;;;13.30;83.50;;;;;;4936511;28;101852;-91
2021/10/31 02:23:25;;;;;;;34.78;23.80;;;13.30;83.30;;;;;;4935742;28;93107;-91
2021/10/31 02:25:56;;;;;;;34.70;25.83;;;13.30;83.40;;;;;;4937322;28;94724;-91
2021/10/31 02:28:23;;;;;;;36.83;25.58;;;13.30;83.60;;;;;;4953320;28;92470;-91
2021/10/31 02:30:51;;;;;;;35.83;26.65;;;13.20;83.60;;;;;;4937139;28;93695;-91
2021/10/31 02:33:18;;;;;;;38.20;26.17;;;13.20;83.40;;;;;;4921220;28;93305;-91
2021/10/31 02:36:20;;;;;;;34.92;25.40;;;13.20;83.50;;;;;;4920604;28;92351;-91
2021/10/31 02:38:47;;;;;;;37.10;25.65;;;13.20;83.40;;;;;;4937021;28;92501;-91
2021/10/31 02:41:14;;;;;;;33.50;26.25;;;13.00;83.70;;;;;;4905161;28;93164;-91
2021/10/31 02:43:41;;;;;;;38.28;26.42;;;13.00;83.80;;;;;;4921366;28;93338;-91
2021/10/31 02:46:08;;;;;;;37.40;26.50;;;13.00;83.90;;;;;;4920377;28;92450;-91
2021/10/31 02:48:38;;;;;;;43.63;29.08;;;12.90;83.90;;;;;;4904880;28;92559;-90
2021/10/31 02:51:18;;;;;;;40.80;26.20;;;12.90;83.90;;;;;;4936910;28;95698;-91
2021/10/31 02:53:57;;;;;;;41.58;27.23;;;12.90;83.80;;;;;;4936891;28;95618;-91
2021/10/31 02:56:35;;;;;;;41.17;26.98;;;12.90;83.90;;;;;;4938138;28;92505;-90
2021/10/31 02:59:32;;;;;;;41.08;28.80;;;12.80;84.20;;;;;;4936894;28;92420;-91
2021/10/31 03:01:59;;;;;;;40.20;27.52;;;12.80;84.10;;;;;;4972148;28;96277;-91
2021/10/31 03:04:27;;;;;;;38.83;27.48;;;12.70;84.20;;;;;;4957004;28;93993;-91
2021/10/31 03:06:55;;;;;;;40.45;27.63;;;12.60;84.30;;;;;;4923409;28;95934;-91
2021/10/31 03:09:22;;;;;;;50.10;29.10;;;12.60;84.20;;;;;;4939627;28;91710;-91
2021/10/31 03:12:08;;;;;;;41.45;29.48;;;12.60;84.20;;;;;;4924359;28;95613;-91
2021/10/31 03:14:36;;;;;;;42.88;29.05;;;12.60;84.30;;;;;;4954896;28;94607;-91
2021/10/31 03:17:04;;;;;;;46.13;28.38;;;12.50;84.40;;;;;;4937941;28;94908;-91
2021/10/31 03:19:32;;;;;;;37.13;25.85;;;12.50;84.60;;;;;;4939330;28;92511;-91
2021/10/31 03:22:00;;;;;;;38.95;27.27;;;12.50;84.80;;;;;;4938983;28;96267;-91
2021/10/31 03:24:27;;;;;;;46.55;28.63;;;12.40;85.20;;;;;;4955365;28;99940;-91
2021/10/31 03:26:54;;;;;;;39.13;27.05;;;12.40;85.00;;;;;;4923145;28;92427;-91
2021/10/31 03:29:24;;;;;;;44.65;27.63;;;12.40;85.20;;;;;;4957163;28;92432;-91
2021/10/31 03:31:52;;;;;;;44.85;28.10;;;12.40;85.20;;;;;;4939077;28;94699;-91
2021/10/31 03:34:19;;;;;;;46.55;28.48;;;12.40;85.00;;;;;;4942463;28;96122;-91
2021/10/31 03:36:47;;;;;;;43.75;27.83;;;12.40;85.10;;;;;;4926826;28;92519;-91
2021/10/31 03:39:16;;;;;;;46.58;30.20;;;12.40;85.20;;;;;;4942229;28;95317;-91
2021/10/31 03:41:45;;;;;;;47.72;29.17;;;12.40;85.20;;;;;;4958929;28;95719;-91
2021/10/31 03:44:17;;;;;;;47.85;28.95;;;12.30;85.20;;;;;;4926543;28;98015;-91
2021/10/31 03:46:44;;;;;;;51.38;28.73;;;12.40;85.70;;;;;;4931453;28;92407;-93
2021/10/31 03:49:13;;;;;;;49.40;29.17;;;12.30;85.00;;;;;;4931342;28;92606;-92
2021/10/31 03:51:40;;;;;;;48.50;28.60;;;12.30;85.10;;;;;;4931363;28;96200;-91
2021/10/31 03:54:07;;;;;;;41.00;25.63;;;12.30;85.10;;;;;;4944083;28;96078;-91
2021/10/31 03:56:34;;;;;;;42.13;27.50;;;12.30;85.40;;;;;;4942376;28;92385;-91
2021/10/31 03:59:01;;;;;;;47.13;28.50;;;12.20;85.50;;;;;;4942956;28;91534;-91
2021/10/31 04:01:31;;;;;;;47.95;29.08;;;12.30;85.60;;;;;;4941947;28;95433;-91
2021/10/31 04:04:00;;;;;;;48.47;28.17;;;12.30;85.50;;;;;;4959368;28;94238;-90
2021/10/31 04:06:27;;;;;;;44.88;26.67;;;12.30;85.40;;;;;;4940641;28;94782;-91
2021/10/31 04:08:54;;;;;;;47.15;28.02;;;12.30;85.40;;;;;;4925932;28;92715;-91
2021/10/31 04:11:22;;;;;;;44.35;27.33;;;12.30;85.60;;;;;;4926292;28;93392;-91
2021/10/31 04:13:49;;;;;;;42.50;27.85;;;12.30;86.20;;;;;;4941906;28;96185;-91
2021/10/31 04:16:16;;;;;;;44.63;28.40;;;12.40;85.40;;;;;;4925188;28;93695;-91
2021/10/31 04:18:43;;;;;;;42.95;26.52;;;12.40;85.20;;;;;;4941980;28;92578;-91
2021/10/31 04:21:10;;;;;;;42.08;25.92;;;12.40;85.50;;;;;;4909648;28;96114;-91
2021/10/31 04:23:37;;;;;;;41.45;27.90;;;12.40;84.80;;;;;;4926169;28;95705;-90
2021/10/31 04:26:04;;;;;;;39.25;26.92;;;12.40;84.90;;;;;;4910005;28;92478;-91
2021/10/31 04:28:31;;;;;;;36.10;26.05;;;12.40;85.10;;;;;;4941986;28;92504;-92
2021/10/31 04:30:58;;;;;;;42.15;27.67;;;12.40;84.80;;;;;;4924305;28;98278;-90
2021/10/31 04:33:26;;;;;;;43.13;27.85;;;12.50;84.90;;;;;;4909972;28;97974;-91
2021/10/31 04:35:53;;;;;;;40.58;26.30;;;12.50;85.00;;;;;;4925458;28;101914;-90
2021/10/31 04:38:24;;;;;;;42.30;27.00;;;12.50;84.80;;;;;;4941881;28;92561;-91
2021/10/31 04:40:51;;;;;;;41.28;28.25;;;12.50;84.60;;;;;;4929838;28;95579;-91
2021/10/31 04:43:19;;;;;;;41.00;27.25;;;12.60;84.80;;;;;;4909868;28;93130;-90
2021/10/31 04:45:46;;;;;;;34.50;23.83;;;12.60;84.40;;;;;;4925069;28;92429;-91
2021/10/31 04:48:13;;;;;;;41.58;26.17;;;12.50;84.40;;;;;;4910041;28;91726;-90
2021/10/31 04:50:41;;;;;;;36.10;25.13;;;12.60;84.50;;;;;;4909253;28;94695;-91
2021/10/31 04:53:08;;;;;;;32.40;23.08;;;12.50;84.40;;;;;;4925159;28;95260;-91
2021/10/31 04:55:40;;;;;;;40.92;27.20;;;12.50;84.30;;;;;;4940142;28;100834;-91
2021/10/31 04:58:08;;;;;;;44.00;26.70;;;12.60;84.40;;;;;;4957676;28;92625;-92
2021/10/31 05:00:37;;;;;;;44.20;27.58;;;12.60;84.40;;;;;;4940855;28;95102;-91
2021/10/31 05:03:04;;;;;;;41.72;26.98;;;12.60;84.50;;;;;;4941433;28;95309;-91
2021/10/31 05:05:32;;;;;;;39.03;25.30;;;12.50;84.60;;;;;;4925549;28;92401;-91
2021/10/31 05:08:01;;;;;;;37.67;24.65;;;12.60;84.70;;;;;;4941526;28;92440;-91
2021/10/31 05:10:28;;;;;;;37.60;25.55;;;12.60;84.60;;;;;;4941206;28;96296;-91
2021/10/31 05:12:55;;;;;;;40.95;26.50;;;12.60;84.30;;;;;;4925923;28;95487;-91
2021/10/31 05:15:22;;;;;;;38.03;24.05;;;12.60;84.50;;;;;;4941458;28;92410;-91
2021/10/31 05:17:50;;;;;;;38.22;25.35;;;12.60;84.30;;;;;;4925313;28;92478;-91
2021/10/31 05:20:17;;;;;;;33.13;23.80;;;12.60;84.10;;;;;;4924368;28;95916;-91
2021/10/31 05:22:44;;;;;;;34.92;24.38;;;12.60;84.30;;;;;;4940775;28;104930;-91
2021/10/31 05:25:12;;;;;;;36.33;24.55;;;12.60;84.60;;;;;;4941367;28;92429;-91
2021/10/31 05:27:40;;;;;;;34.80;24.17;;;12.60;84.20;;;;;;4940890;28;92471;-91
2021/10/31 05:30:09;;;;;;;32.70;23.40;;;12.60;84.30;;;;;;4941130;28;93306;-91
2021/10/31 05:32:38;;;;;;;36.88;24.85;;;12.60;84.40;;;;;;4924788;28;94359;-90
2021/10/31 05:35:07;;;;;;;32.75;23.40;;;12.60;84.30;;;;;;4925304;28;92446;-91
2021/10/31 05:37:42;;;;;;;33.85;23.70;;;12.60;84.10;;;;;;4925371;28;91654;-91
2021/10/31 05:40:12;;;;;;;29.85;21.85;;;12.60;83.90;;;;;;4958732;28;93336;-91
2021/10/31 05:42:40;;;;;;;30.08;22.55;;;12.70;83.80;;;;;;4940916;28;93079;-91
2021/10/31 05:45:09;;;;;;;31.17;22.30;;;12.70;84.30;;;;;;4957718;28;94613;-91
2021/10/31 05:47:37;;;;;;;28.75;22.20;;;12.70;83.50;;;;;;4941197;28;92723;-91
2021/10/31 05:50:10;;;;;;;35.47;21.85;;;12.60;83.70;;;;;;4924040;28;99040;-91
2021/10/31 05:52:38;;;;;;;31.83;22.33;;;12.60;83.40;;;;;;4940831;28;95626;-91
2021/10/31 05:55:08;;;;;;;29.30;22.08;;;12.60;83.40;;;;;;4924798;28;92380;-91
2021/10/31 05:57:35;;;;;;;27.23;19.85;;;12.60;83.30;;;;;;4939823;28;92481;-91
2021/10/31 06:00:06;;;;;;;30.55;22.55;;;12.60;83.50;;;;;;4923913;28;96198;-90
2021/10/31 06:02:42;;;;;;;33.88;23.73;;;12.60;83.50;;;;;;4958393;28;92547;-91
2021/10/31 06:05:13;;;;;;;37.17;23.50;;;12.60;83.40;;;;;;4924475;28;92813;-91
2021/10/31 06:07:41;;;;;;;32.83;23.63;;;12.60;83.40;;;;;;4925450;28;92360;-91
2021/10/31 06:10:09;;;;;;;34.03;22.65;;;12.60;83.50;;;;;;4922799;28;98497;-91
2021/10/31 06:12:41;;;;;;;30.30;21.20;;;12.60;83.30;;;;;;4939410;28;113484;-91
2021/10/31 06:15:08;;;;;;;35.17;23.33;;;12.60;83.40;;;;;;4940418;28;92723;-91
2021/10/31 06:17:37;;;;;;;33.50;22.85;;;12.60;83.30;;;;;;4924626;28;92491;-91
2021/10/31 06:20:10;;;;;;;34.40;22.65;;;12.60;83.10;;;;;;4940437;28;93686;-91
2021/10/31 06:22:38;;;;;;;29.40;22.15;;;12.70;83.10;;;;;;4940690;28;95877;-91
2021/10/31 06:25:06;;;;;;;28.45;21.98;;;12.60;83.10;;;;;;4923988;28;92452;-91
2021/10/31 06:27:33;;;;;;;33.65;23.58;;;12.60;83.50;;;;;;4940994;28;91748;-91
2021/10/31 06:30:01;;;;;;;27.90;21.83;;;12.60;83.40;;;;;;4923989;28;95728;-91
2021/10/31 06:32:28;;;;;;;30.48;21.27;;;12.60;83.30;;;;;;4943332;28;110521;-90
2021/10/31 06:34:55;;;;;;;28.08;21.25;;;12.60;83.10;;;;;;4922980;28;94748;-91
2021/10/31 06:37:22;;;;;;;32.35;22.73;;;12.60;83.20;;;;;;4940304;28;92571;-91
2021/10/31 06:39:48;;;;;;;30.15;22.23;;;12.60;82.90;;;;;;4924228;28;93657;-91
2021/10/31 06:42:16;;;;;;;28.45;21.00;;;12.60;83.20;;;;;;4924609;28;95843;-91
2021/10/31 06:44:43;;;;;;;27.98;21.13;;;12.60;83.10;;;;;;4908014;28;92413;-91
2021/10/31 06:47:10;;;;;;;30.58;20.52;;;12.60;83.10;;;;;;4957680;28;92484;-90
2021/10/31 06:49:40;;;;;;;28.35;21.92;;;12.60;83.00;;;;;;4955646;28;94734;-91
2021/10/31 06:52:07;;;;;;;30.10;22.52;;;12.60;83.00;;;;;;4940253;28;93456;-91
2021/10/31 06:54:34;;;;;;;26.90;21.48;;;12.70;83.10;;;;;;4939249;28;92416;-91
2021/10/31 06:57:01;;;;;;;27.80;21.05;;;12.60;82.90;;;;;;4907562;28;92710;-91
2021/10/31 06:59:28;;;;;;;23.25;18.33;;;12.60;82.70;;;;;;4938025;28;97228;-91
2021/10/31 07:01:55;;;;;;;31.25;22.15;;;12.60;83.00;;;;;;4955932;28;98309;-91
2021/10/31 07:04:22;;;;;;;26.33;21.83;;;12.60;82.80;;;;;;4923898;28;92397;-91
2021/10/31 07:06:49;;;;;;;29.92;22.80;;;12.60;82.90;;;;;;4909122;28;92612;-91
2021/10/31 07:09:16;;;;;;;31.88;23.30;;;12.60;83.10;;;;;;4940006;28;96135;-91
2021/10/31 07:11:43;;;;;;;38.90;23.65;;;12.70;82.90;;;;;;4940058;28;93160;-91
2021/10/31 07:14:10;;;;;;;33.17;23.00;;;12.60;83.20;;;;;;4923276;28;92475;-91
2021/10/31 07:16:37;;;;;;;37.42;26.45;;;12.60;83.20;;;;;;4924282;28;91665;-90
2021/10/31 07:19:04;;;;;;;31.20;25.10;;;12.60;83.20;;;;;;4939882;28;96174;-91
2021/10/31 07:21:31;;;;;;;29.98;22.10;;;12.60;83.10;;;;;;4939513;28;93187;-91
2021/10/31 07:23:58;;;;;;;33.65;24.10;;;12.60;83.20;;;;;;4938190;28;94760;-91
2021/10/31 07:26:25;;;;;;;34.33;23.17;;;12.70;82.80;;;;;;4906982;28;98359;-91
2021/10/31 07:28:52;;;;;;;32.83;22.40;;;12.70;82.80;;;;;;4939365;28;93206;-91
2021/10/31 07:31:21;;;;;;;32.13;24.15;;;12.70;82.80;;;;;;4939311;28;93455;-91
2021/10/31 07:33:49;;;;;;;34.33;23.55;;;12.80;82.70;;;;;;4923443;28;92504;-90
2021/10/31 07:36:16;;;;;;;31.48;21.92;;;12.80;82.70;;;;;;4907305;28;92536;-90
2021/10/31 07:38:44;;;;;;;26.20;20.58;;;12.90;82.20;;;;;;4955297;28;94808;-91
2021/10/31 07:41:11;;;;;;;29.25;20.02;;;13.00;82.10;;;;;;4957091;28;93441;-91
2021/10/31 07:43:39;;;;;;;27.63;20.38;;;13.00;82.00;;;;;;4939124;28;92466;-91
2021/10/31 07:46:06;;;;;;;25.98;20.08;;;13.00;81.80;;;;;;4939192;28;92516;-91
2021/10/31 07:48:33;;;;;;;27.08;19.50;;;13.10;81.70;;;;;;4906217;28;98653;-91
2021/10/31 07:51:00;;;;;;;31.55;20.67;;;13.10;82.10;;;;;;4938852;28;98395;-91
2021/10/31 07:53:27;;;;;;;25.88;19.60;;;13.10;81.70;;;;;;4939494;28;92243;-91
2021/10/31 07:55:55;;;;;;;25.48;20.05;;;13.20;81.30;;;;;;4938495;28;92420;-91
2021/10/31 07:58:25;;;;;;;26.95;18.27;;;13.20;81.40;;;;;;4938527;28;109321;-91
2021/10/31 08:00:52;;;;;;;24.20;19.58;;;13.10;81.30;;;;;;4938077;28;95688;-91
2021/10/31 08:03:19;;;;;;;22.23;18.08;;;13.20;81.30;;;;;;4939410;28;92525;-91
2021/10/31 08:05:48;;;;;;;22.73;18.25;;;13.10;81.10;;;;;;4939833;28;91823;-91
2021/10/31 08:08:21;;;;;;;27.33;17.77;;;13.10;81.00;;;;;;4956054;28;93276;-91
2021/10/31 08:10:49;;;;;;;25.23;19.83;;;13.20;80.80;;;;;;4923807;28;95790;-91
2021/10/31 08:13:24;;;;;;;28.65;20.10;;;13.10;81.00;;;;;;4953664;28;113388;-91
2021/10/31 08:15:53;;;;;;;23.85;17.27;;;13.10;82.10;;;;;;4940787;28;92243;-91
2021/10/31 08:18:20;;;;;;;25.77;19.75;;;13.10;81.20;;;;;;4936472;28;95137;-90
2021/10/31 08:20:47;;;;;;;21.85;17.40;;;13.20;81.00;;;;;;4939167;28;93119;-91
2021/10/31 08:23:15;;;;;;;23.45;17.75;;;13.30;80.90;;;;;;4955937;28;92464;-91
2021/10/31 08:25:46;;;;;;;18.05;16.02;;;13.40;81.20;;;;;;4940223;28;92556;-90
2021/10/31 08:28:15;;;;;;;21.48;15.63;;;13.50;81.00;;;;;;4955911;28;95853;-91
2021/10/31 08:30:49;;;;;;;18.50;16.00;;;13.70;80.40;;;;;;4941114;28;92818;-91
2021/10/31 08:33:22;;;;;;;22.20;15.45;;;13.80;80.20;;;;;;4916604;28;92397;-91
2021/10/31 08:35:50;;;;;;;19.02;16.83;;;13.90;79.40;;;;;;4927808;28;92259;-91
2021/10/31 08:38:18;;;;;;;17.55;13.13;;;13.90;79.40;;;;;;4957391;28;97213;-91
2021/10/31 08:40:48;;;;;;;17.10;15.32;;;14.00;79.10;;;;;;4942699;28;95922;-90
2021/10/31 08:43:17;;;;;;;16.13;14.38;;;14.00;79.00;;;;;;4959258;28;92385;-91
2021/10/31 08:45:45;;;;;;;18.15;14.00;;;13.90;78.10;;;;;;4943096;28;92496;-91
2021/10/31 08:48:15;;;;;;;21.08;14.50;;;13.90;77.90;;;;;;4959603;28;93452;-91
2021/10/31 08:50:43;;;;;;;17.38;13.93;;;13.90;78.20;;;;;;4941665;28;95727;-91
2021/10/31 08:53:14;;;;;;;17.52;14.43;;;13.80;78.60;;;;;;4942622;28;92439;-91
2021/10/31 08:55:41;;;;;;;18.08;15.43;;;13.70;78.70;;;;;;4959076;28;91775;-91
2021/10/31 08:58:10;;;;;;;15.93;14.13;;;13.80;79.10;;;;;;4958175;28;113508;-90
2021/10/31 09:00:37;;;;;;;295.25;178.65;;;13.80;78.80;;;;;;4941701;28;93346;-91
2021/10/31 09:03:05;;;;;;;19.02;15.23;;;13.90;79.00;;;;;;4956985;28;94624;-90
2021/10/31 09:05:33;;;;;;;29.17;26.20;;;13.90;78.80;;;;;;4942037;28;92540;-90
2021/10/31 09:08:01;;;;;;;26.40;23.70;;;13.90;79.40;;;;;;4957929;28;93735;-91
2021/10/31 09:10:29;;;;;;;21.45;19.20;;;14.00;78.70;;;;;;4925775;28;96239;-91
2021/10/31 09:12:58;;;;;;;16.92;13.35;;;14.10;78.30;;;;;;4926291;28;98061;-91
2021/10/31 09:15:27;;;;;;;14.55;12.40;;;14.10;78.70;;;;;;4910562;28;92521;-91
2021/10/31 09:17:55;;;;;;;16.70;14.95;;;14.10;78.40;;;;;;4946268;28;94420;-91
2021/10/31 09:20:25;;;;;;;15.63;12.23;;;14.20;78.30;;;;;;4926141;28;93459;-91
2021/10/31 09:23:00;;;;;;;16.08;12.90;;;14.20;77.80;;;;;;4939101;28;92391;-90
2021/10/31 09:25:28;;;;;;;13.07;11.65;;;14.30;78.30;;;;;;4939977;28;92488;-91
2021/10/31 09:27:57;;;;;;;14.73;12.57;;;14.30;77.60;;;;;;4938308;28;95694;-91
2021/10/31 09:30:26;;;;;;;16.90;15.27;;;14.30;77.00;;;;;;4938534;28;98477;-91
2021/10/31 09:32:55;;;;;;;15.32;13.80;;;14.10;77.00;;;;;;4906165;28;92443;-91
2021/10/31 09:35:25;;;;;;;21.17;19.17;;;14.10;77.70;;;;;;4906588;28;98513;-91
2021/10/31 09:37:56;;;;;;;17.73;13.98;;;14.10;77.60;;;;;;4906250;28;95922;-90
2021/10/31 09:40:25;;;;;;;15.98;14.30;;;14.20;77.60;;;;;;4906859;28;94556;-91
2021/10/31 09:42:54;;;;;;;17.00;12.57;;;14.20;77.70;;;;;;4939869;28;92355;-90
2021/10/31 09:45:23;;;;;;;14.75;12.25;;;14.10;77.60;;;;;;4906748;28;92018;-91
2021/10/31 09:48:10;;;;;;;15.57;12.52;;;14.10;77.70;;;;;;4922084;28;92415;-90
2021/10/31 09:50:48;;;;;;;16.10;12.73;;;14.10;77.80;;;;;;4921545;28;95615;-91
2021/10/31 09:53:21;;;;;;;14.43;12.18;;;14.00;78.10;;;;;;4921281;28;94774;-90
2021/10/31 09:55:49;;;;;;;14.75;11.82;;;14.00;77.80;;;;;;4971757;28;92851;-91
2021/10/31 09:58:36;;;;;;;15.55;11.27;;;14.10;78.40;;;;;;4965122;28;95942;-91
2021/10/31 10:01:23;;;;;;;13.40;11.13;;;14.10;77.90;;;;;;4947331;28;92419;-91
2021/10/31 10:03:54;;;;;;;12.30;10.70;;;14.30;77.80;;;;;;4924514;28;92599;-90
2021/10/31 10:06:23;;;;;;;15.80;12.13;;;14.30;77.60;;;;;;4940580;28;92367;-90
2021/10/31 10:09:08;;;;;;;24.77;14.90;;;14.40;76.90;;;;;;4939067;28;109398;-90
2021/10/31 10:11:43;;;;;;;16.35;12.73;;;14.50;76.20;;;;;;4941750;28;95761;-91
2021/10/31 10:14:19;;;;;;;16.27;12.60;;;14.60;76.50;;;;;;4937564;28;92587;-90
2021/10/31 10:16:47;;;;;;;14.00;11.20;;;14.70;75.90;;;;;;4940404;28;92698;-91
2021/10/31 10:19:24;;;;;;;12.50;11.00;;;14.80;76.00;;;;;;4907273;28;98208;-91
2021/10/31 10:21:52;;;;;;;11.93;10.65;;;14.80;75.90;;;;;;4940795;28;95903;-91
2021/10/31 10:24:22;;;;;;;14.25;11.20;;;14.90;75.50;;;;;;4940446;28;92467;-91
2021/10/31 10:26:54;;;;;;;14.45;10.30;;;14.90;75.50;;;;;;4925193;28;92484;-91
2021/10/31 10:29:27;;;;;;;14.57;11.55;;;15.10;74.90;;;;;;4924064;28;95967;-92
2021/10/31 10:31:58;;;;;;;12.03;10.10;;;15.20;74.70;;;;;;4957425;28;93379;-91
2021/10/31 10:34:47;;;;;;;12.75;9.75;;;15.20;74.30;;;;;;4924162;28;92373;-91
2021/10/31 10:37:16;;;;;;;12.50;10.10;;;15.30;74.40;;;;;;4925388;28;91862;-91
2021/10/31 10:39:50;;;;;;;13.70;9.95;;;15.30;73.30;;;;;;4940307;28;96351;-91
2021/10/31 10:42:20;;;;;;;53.53;41.25;;;15.40;73.00;;;;;;4940517;28;96089;-92
2021/10/31 10:44:48;;;;;;;45.85;36.92;;;15.50;73.00;;;;;;4939254;28;94613;-92
2021/10/31 10:47:21;;;;;;;31.13;23.45;;;15.60;72.50;;;;;;4923363;28;102950;-92
2021/10/31 10:49:52;;;;;;;18.40;16.55;;;15.70;72.30;;;;;;4939843;28;94876;-92
2021/10/31 10:52:40;;;;;;;22.45;20.35;;;15.60;72.00;;;;;;4957482;28;92855;-91
2021/10/31 10:55:22;;;;;;;24.33;22.00;;;15.60;72.00;;;;;;4940084;28;92245;-92
2021/10/31 10:58:02;;;;;;;19.52;17.60;;;15.60;72.00;;;;;;4940795;28;92434;-92
2021/10/31 11:00:35;;;;;;;10.23;9.15;;;15.60;71.30;;;;;;4939826;28;96282;-92
2021/10/31 11:03:07;;;;;;;;;;;15.50;71.70;;;;;;4957606;28;95572;-91
2021/10/31 11:05:39;;;;;;;14.82;12.63;;;15.50;71.80;;;;;;4942230;28;92630;-92
2021/10/31 11:08:15;;;;;;;10.60;9.32;;;15.60;71.00;;;;;;4940175;28;92546;-91
2021/10/31 11:10:55;;;;;;;10.73;7.78;;;15.90;71.20;;;;;;4956898;28;95752;-91
2021/10/31 11:13:24;;;;;;;9.70;7.90;;;15.90;69.60;;;;;;4940022;28;98420;-91
2021/10/31 11:15:53;;;;;;;9.80;8.23;;;16.10;70.50;;;;;;4924392;28;92440;-91
2021/10/31 11:18:20;;;;;;;8.68;7.00;;;16.30;69.30;;;;;;4940546;28;92537;-91
2021/10/31 11:20:48;;;;;;;8.30;7.50;;;16.30;68.50;;;;;;4939911;28;96905;-91
2021/10/31 11:23:20;;;;;;;9.10;7.85;;;16.10;69.20;;;;;;4924601;28;93051;-91
2021/10/31 11:25:49;;;;;;;9.57;7.03;;;16.20;69.70;;;;;;4924534;28;92486;-91
2021/10/31 11:28:19;;;;;;;8.02;7.20;;;16.10;69.00;;;;;;4921061;28;91834;-91
2021/10/31 11:30:50;;;;;;;8.93;7.80;;;16.10;69.50;;;;;;4936287;28;96498;-91
2021/10/31 11:33:17;;;;;;;8.68;6.85;;;16.20;69.80;;;;;;4920759;28;93417;-93
2021/10/31 11:35:45;;;;;;;8.50;7.70;;;16.30;69.50;;;;;;4918717;28;101289;-91
2021/10/31 11:38:15;;;;;;;8.43;7.07;;;16.40;69.40;;;;;;4936494;28;92244;-91
2021/10/31 11:40:48;;;;;;;6.97;6.25;;;16.50;69.60;;;;;;4937806;28;93643;-91
2021/10/31 11:43:20;;;;;;;8.82;6.53;;;16.60;68.30;;;;;;4936379;28;95906;-91
2021/10/31 11:45:50;;;;;;;7.77;7.07;;;16.70;68.40;;;;;;4936897;28;92354;-91
2021/10/31 11:48:19;;;;;;;8.45;7.18;;;16.70;68.40;;;;;;4936665;28;92441;-91
2021/10/31 11:51:01;;;;;;;7.43;6.68;;;16.80;68.60;;;;;;4920433;28;94995;-91
2021/10/31 11:54:02;;;;;;;7.40;6.50;;;16.70;68.00;;;;;;4920267;28;96097;-91
2021/10/31 11:56:31;;;;;;;7.75;5.88;;;16.70;68.50;;;;;;4939230;28;92276;-91
2021/10/31 11:59:01;;;;;;;6.80;6.07;;;16.70;67.90;;;;;;4924074;28;92451;-91
2021/10/31 12:01:45;;;;;;;6.53;5.93;;;16.70;66.70;;;;;;4955161;28;95169;-91
2021/10/31 12:07:41;;;;;;;5.95;5.35;;;16.60;66.90;;;;;;4959131;28;92545;-91
2021/10/31 12:10:27;;;;;;;7.30;6.57;;;16.50;67.90;;;;;;4960950;28;92328;-93
2021/10/31 12:13:21;;;;;;;6.50;5.82;;;16.60;68.20;;;;;;4911146;28;96049;-92
2021/10/31 12:16:04;;;;;;;7.97;7.07;;;16.70;68.10;;;;;;4939586;28;95513;-92
2021/10/31 12:18:46;;;;;;;6.87;6.17;;;16.70;68.10;;;;;;4943113;28;92429;-93
2021/10/31 12:21:37;;;;;;;7.22;6.53;;;16.70;67.10;;;;;;4943210;28;91642;-93
2021/10/31 12:24:17;;;;;;;19.88;14.18;;;16.70;67.80;;;;;;4942468;28;93331;-92
2021/10/31 12:26:49;;;;;;;17.42;11.98;;;16.80;67.70;;;;;;4942016;28;95929;-92
2021/10/31 12:29:18;;;;;;;79.55;39.85;;;16.80;68.20;;;;;;4958285;28;94707;-92
2021/10/31 12:31:57;;;;;;;150.05;80.28;;;16.70;67.00;;;;;;4941105;28;103791;-92
2021/10/31 12:34:32;;;;;;;142.07;73.07;;;16.70;67.10;;;;;;4923673;28;94668;-92
2021/10/31 12:37:00;;;;;;;40.60;26.15;;;16.50;67.20;;;;;;4958889;28;93467;-91
2021/10/31 12:39:31;;;;;;;34.22;30.88;;;16.60;67.50;;;;;;4909441;28;92689;-92
2021/10/31 12:42:24;;;;;;;56.58;52.10;;;16.50;67.20;;;;;;4940917;28;92457;-92
2021/10/31 12:45:23;;;;;;;11.75;10.73;;;16.60;67.50;;;;;;4940349;28;96135;-92
2021/10/31 12:48:12;;;;;;;7.07;6.53;;;16.50;66.60;;;;;;4925953;28;93204;-92
2021/10/31 12:50:48;;;;;;;9.82;9.02;;;16.50;67.10;;;;;;4939879;28;92344;-92
2021/10/31 12:53:15;;;;;;;8.25;7.45;;;16.60;67.10;;;;;;4940098;28;92407;-92